Terminal Aerodrome Forecast
Issued by NWS

Home | Current Version | Previous Version | Text Only | Print | Product List | Glossary On
Versions: 1 2 3 4 5 6 7 8 9 10 11 12 13 14 15 16 17 18
000
FTUS41 KGYX 010538
TAFMHT
TAF
KMHT 010538Z 0106/0206 15005KT P6SM SCT100 BKN200
     FM011300 15007KT P6SM BKN050
     FM011700 15007KT P6SM -SHRA OVC025
     FM020100 13004KT P6SM OVC035=

USA.gov is the U.S. government's official web portal to all federal, state and local government web resources and services.